Airport View

Enter AWOS ICAO identifier for current METAR.

ex. KFNL

KVVV 210056Z AUTO 15008KT 10SM CLR 26/19 A2979 RMK AO2 LTG DSNT N

21 Sep 2019 01:04

Frequency: 119.225

Phone: 320-839-2363

Other Area AWOS: KAQP - KDXX - KMOX - KETH

TAF KATY 202320Z 2100/2124 17019G27KT P6SM SCT080 FM210700 17015G29KT P6SM VCTS BKN080CB FM211300 23016G22KT P6SM BKN022